sensor_id;sensor_type;location;lat;lon;timestamp;P1;durP1;ratioP1;P2;durP2;ratioP2
14599;SDS011;7386;45.586;12.854;2022-11-25T00:01:17;39.40;;;32.83;;
14599;SDS011;7386;45.586;12.854;2022-11-25T00:03:48;41.20;;;32.87;;
14599;SDS011;7386;45.586;12.854;2022-11-25T00:06:18;39.43;;;32.77;;
14599;SDS011;7386;45.586;12.854;2022-11-25T00:08:48;41.93;;;31.80;;
14599;SDS011;7386;45.586;12.854;2022-11-25T00:11:17;39.40;;;32.50;;
14599;SDS011;7386;45.586;12.854;2022-11-25T00:13:45;46.30;;;33.53;;
14599;SDS011;7386;45.586;12.854;2022-11-25T00:16:15;40.87;;;33.13;;
14599;SDS011;7386;45.586;12.854;2022-11-25T00:18:46;37.90;;;31.17;;
14599;SDS011;7386;45.586;12.854;2022-11-25T00:21:17;36.70;;;31.20;;
14599;SDS011;7386;45.586;12.854;2022-11-25T00:23:49;38.73;;;31.33;;
14599;SDS011;7386;45.586;12.854;2022-11-25T00:26:19;38.20;;;30.90;;
14599;SDS011;7386;45.586;12.854;2022-11-25T00:28:48;37.13;;;30.23;;
14599;SDS011;7386;45.586;12.854;2022-11-25T00:31:17;34.37;;;30.40;;
14599;SDS011;7386;45.586;12.854;2022-11-25T00:33:48;38.60;;;30.07;;
14599;SDS011;7386;45.586;12.854;2022-11-25T00:36:18;37.83;;;29.47;;
14599;SDS011;7386;45.586;12.854;2022-11-25T00:38:51;34.20;;;28.23;;
14599;SDS011;7386;45.586;12.854;2022-11-25T00:41:20;39.57;;;27.80;;
14599;SDS011;7386;45.586;12.854;2022-11-25T00:44:07;34.07;;;28.70;;
14599;SDS011;7386;45.586;12.854;2022-11-25T00:46:53;33.00;;;28.07;;
14599;SDS011;7386;45.586;12.854;2022-11-25T00:49:23;33.57;;;28.20;;
14599;SDS011;7386;45.586;12.854;2022-11-25T00:51:51;32.50;;;28.50;;
14599;SDS011;7386;45.586;12.854;2022-11-25T00:54:19;32.73;;;28.30;;
14599;SDS011;7386;45.586;12.854;2022-11-25T00:56:48;33.60;;;27.63;;
14599;SDS011;7386;45.586;12.854;2022-11-25T00:59:16;32.90;;;27.20;;
14599;SDS011;7386;45.586;12.854;2022-11-25T01:01:44;31.37;;;26.80;;
14599;SDS011;7386;45.586;12.854;2022-11-25T01:04:13;36.40;;;25.43;;
14599;SDS011;7386;45.586;12.854;2022-11-25T01:06:43;31.60;;;26.30;;
14599;SDS011;7386;45.586;12.854;2022-11-25T01:09:12;33.27;;;25.87;;
14599;SDS011;7386;45.586;12.854;2022-11-25T01:11:40;31.47;;;26.23;;
14599;SDS011;7386;45.586;12.854;2022-11-25T01:14:09;30.93;;;26.03;;
14599;SDS011;7386;45.586;12.854;2022-11-25T01:16:37;31.70;;;25.67;;
14599;SDS011;7386;45.586;12.854;2022-11-25T01:19:05;30.47;;;25.30;;
14599;SDS011;7386;45.586;12.854;2022-11-25T01:21:34;29.23;;;24.27;;
14599;SDS011;7386;45.586;12.854;2022-11-25T01:24:04;28.90;;;23.20;;
14599;SDS011;7386;45.586;12.854;2022-11-25T01:26:34;26.57;;;23.40;;
14599;SDS011;7386;45.586;12.854;2022-11-25T01:29:03;27.33;;;21.30;;
14599;SDS011;7386;45.586;12.854;2022-11-25T01:31:34;27.63;;;22.30;;
14599;SDS011;7386;45.586;12.854;2022-11-25T01:34:04;26.33;;;21.40;;
14599;SDS011;7386;45.586;12.854;2022-11-25T01:36:33;24.43;;;20.57;;
14599;SDS011;7386;45.586;12.854;2022-11-25T01:39:03;26.43;;;20.57;;
14599;SDS011;7386;45.586;12.854;2022-11-25T01:41:33;25.30;;;20.20;;
14599;SDS011;7386;45.586;12.854;2022-11-25T01:44:05;21.90;;;18.60;;
14599;SDS011;7386;45.586;12.854;2022-11-25T01:46:46;25.17;;;19.17;;
14599;SDS011;7386;45.586;12.854;2022-11-25T01:49:18;20.73;;;17.33;;
14599;SDS011;7386;45.586;12.854;2022-11-25T01:51:52;19.57;;;16.80;;
14599;SDS011;7386;45.586;12.854;2022-11-25T01:54:25;18.87;;;16.47;;
14599;SDS011;7386;45.586;12.854;2022-11-25T01:56:57;22.07;;;14.90;;
14599;SDS011;7386;45.586;12.854;2022-11-25T01:59:28;18.50;;;15.23;;
14599;SDS011;7386;45.586;12.854;2022-11-25T02:01:59;19.60;;;15.63;;
14599;SDS011;7386;45.586;12.854;2022-11-25T02:04:30;24.37;;;15.70;;
14599;SDS011;7386;45.586;12.854;2022-11-25T02:07:02;16.80;;;14.60;;
14599;SDS011;7386;45.586;12.854;2022-11-25T02:09:37;18.40;;;14.30;;
14599;SDS011;7386;45.586;12.854;2022-11-25T02:12:08;15.80;;;13.83;;
14599;SDS011;7386;45.586;12.854;2022-11-25T02:14:37;14.87;;;13.00;;
14599;SDS011;7386;45.586;12.854;2022-11-25T02:17:06;15.67;;;13.40;;
14599;SDS011;7386;45.586;12.854;2022-11-25T02:19:41;18.13;;;14.23;;
14599;SDS011;7386;45.586;12.854;2022-11-25T02:22:18;14.47;;;12.87;;
14599;SDS011;7386;45.586;12.854;2022-11-25T02:24:52;15.90;;;12.87;;
14599;SDS011;7386;45.586;12.854;2022-11-25T02:27:25;18.63;;;12.87;;
14599;SDS011;7386;45.586;12.854;2022-11-25T02:29:54;14.13;;;12.03;;
14599;SDS011;7386;45.586;12.854;2022-11-25T02:32:23;15.07;;;12.27;;
14599;SDS011;7386;45.586;12.854;2022-11-25T02:34:51;15.17;;;12.30;;
14599;SDS011;7386;45.586;12.854;2022-11-25T02:37:20;15.20;;;11.97;;
14599;SDS011;7386;45.586;12.854;2022-11-25T02:39:50;14.43;;;11.87;;
14599;SDS011;7386;45.586;12.854;2022-11-25T02:42:20;14.73;;;12.03;;
14599;SDS011;7386;45.586;12.854;2022-11-25T02:44:51;14.67;;;12.47;;
14599;SDS011;7386;45.586;12.854;2022-11-25T02:47:19;13.50;;;11.27;;
14599;SDS011;7386;45.586;12.854;2022-11-25T02:49:47;18.63;;;13.10;;
14599;SDS011;7386;45.586;12.854;2022-11-25T02:52:15;14.73;;;11.97;;
14599;SDS011;7386;45.586;12.854;2022-11-25T02:54:43;15.17;;;12.07;;
14599;SDS011;7386;45.586;12.854;2022-11-25T02:57:11;14.67;;;11.50;;
14599;SDS011;7386;45.586;12.854;2022-11-25T02:59:40;12.17;;;10.87;;
14599;SDS011;7386;45.586;12.854;2022-11-25T03:02:09;20.13;;;12.30;;
14599;SDS011;7386;45.586;12.854;2022-11-25T03:04:37;15.17;;;11.27;;
14599;SDS011;7386;45.586;12.854;2022-11-25T03:07:06;17.27;;;12.03;;
14599;SDS011;7386;45.586;12.854;2022-11-25T03:09:34;15.17;;;11.20;;
14599;SDS011;7386;45.586;12.854;2022-11-25T03:12:02;13.00;;;10.23;;
14599;SDS011;7386;45.586;12.854;2022-11-25T03:14:46;14.13;;;11.17;;
14599;SDS011;7386;45.586;12.854;2022-11-25T03:17:16;12.10;;;10.67;;
14599;SDS011;7386;45.586;12.854;2022-11-25T03:19:44;13.13;;;10.57;;
14599;SDS011;7386;45.586;12.854;2022-11-25T03:22:12;14.27;;;10.60;;
14599;SDS011;7386;45.586;12.854;2022-11-25T03:24:40;13.00;;;10.37;;
14599;SDS011;7386;45.586;12.854;2022-11-25T03:27:09;11.97;;;10.03;;
14599;SDS011;7386;45.586;12.854;2022-11-25T03:29:37;13.30;;;10.93;;
14599;SDS011;7386;45.586;12.854;2022-11-25T03:32:05;12.00;;;9.97;;
14599;SDS011;7386;45.586;12.854;2022-11-25T03:34:36;12.70;;;10.17;;
14599;SDS011;7386;45.586;12.854;2022-11-25T03:37:05;12.93;;;10.40;;
14599;SDS011;7386;45.586;12.854;2022-11-25T03:39:33;12.27;;;10.10;;
14599;SDS011;7386;45.586;12.854;2022-11-25T03:42:02;12.03;;;9.40;;
14599;SDS011;7386;45.586;12.854;2022-11-25T03:44:30;14.37;;;9.93;;
14599;SDS011;7386;45.586;12.854;2022-11-25T03:46:59;11.93;;;9.73;;
14599;SDS011;7386;45.586;12.854;2022-11-25T03:49:27;12.43;;;9.63;;
14599;SDS011;7386;45.586;12.854;2022-11-25T03:51:56;11.20;;;9.40;;
14599;SDS011;7386;45.586;12.854;2022-11-25T03:54:25;11.27;;;9.53;;
14599;SDS011;7386;45.586;12.854;2022-11-25T03:56:53;12.63;;;9.30;;
14599;SDS011;7386;45.586;12.854;2022-11-25T03:59:21;13.00;;;9.77;;
14599;SDS011;7386;45.586;12.854;2022-11-25T04:01:50;11.93;;;9.50;;
14599;SDS011;7386;45.586;12.854;2022-11-25T04:04:18;12.77;;;9.97;;
14599;SDS011;7386;45.586;12.854;2022-11-25T04:06:46;13.70;;;9.80;;
14599;SDS011;7386;45.586;12.854;2022-11-25T04:09:16;12.23;;;9.17;;
14599;SDS011;7386;45.586;12.854;2022-11-25T04:11:44;13.67;;;9.63;;
14599;SDS011;7386;45.586;12.854;2022-11-25T04:14:30;10.33;;;8.53;;
14599;SDS011;7386;45.586;12.854;2022-11-25T04:16:58;11.43;;;9.73;;
14599;SDS011;7386;45.586;12.854;2022-11-25T04:19:27;10.13;;;8.97;;
14599;SDS011;7386;45.586;12.854;2022-11-25T04:21:55;12.23;;;9.40;;
14599;SDS011;7386;45.586;12.854;2022-11-25T04:24:26;10.83;;;9.17;;
14599;SDS011;7386;45.586;12.854;2022-11-25T04:26:54;11.27;;;8.90;;
14599;SDS011;7386;45.586;12.854;2022-11-25T04:29:23;12.77;;;8.97;;
14599;SDS011;7386;45.586;12.854;2022-11-25T04:31:51;11.13;;;8.87;;
14599;SDS011;7386;45.586;12.854;2022-11-25T04:34:19;10.67;;;8.83;;
14599;SDS011;7386;45.586;12.854;2022-11-25T04:36:47;14.17;;;9.27;;
14599;SDS011;7386;45.586;12.854;2022-11-25T04:39:15;10.93;;;8.83;;
14599;SDS011;7386;45.586;12.854;2022-11-25T04:41:45;10.80;;;9.07;;
14599;SDS011;7386;45.586;12.854;2022-11-25T04:44:13;12.37;;;9.43;;
14599;SDS011;7386;45.586;12.854;2022-11-25T04:46:41;11.47;;;9.40;;
14599;SDS011;7386;45.586;12.854;2022-11-25T04:49:10;11.30;;;9.20;;
14599;SDS011;7386;45.586;12.854;2022-11-25T04:51:38;10.03;;;8.60;;
14599;SDS011;7386;45.586;12.854;2022-11-25T04:54:06;14.70;;;9.13;;
14599;SDS011;7386;45.586;12.854;2022-11-25T04:56:41;10.10;;;8.63;;
14599;SDS011;7386;45.586;12.854;2022-11-25T04:59:10;10.87;;;8.90;;
14599;SDS011;7386;45.586;12.854;2022-11-25T05:01:56;11.37;;;8.70;;
14599;SDS011;7386;45.586;12.854;2022-11-25T05:04:24;11.80;;;9.40;;
14599;SDS011;7386;45.586;12.854;2022-11-25T05:06:53;9.93;;;8.53;;
14599;SDS011;7386;45.586;12.854;2022-11-25T05:09:21;10.83;;;8.70;;
14599;SDS011;7386;45.586;12.854;2022-11-25T05:11:49;10.90;;;8.80;;
14599;SDS011;7386;45.586;12.854;2022-11-25T05:14:19;10.63;;;8.80;;
14599;SDS011;7386;45.586;12.854;2022-11-25T05:16:47;10.67;;;8.47;;
14599;SDS011;7386;45.586;12.854;2022-11-25T05:19:16;10.33;;;8.90;;
14599;SDS011;7386;45.586;12.854;2022-11-25T05:21:44;10.07;;;8.40;;
14599;SDS011;7386;45.586;12.854;2022-11-25T05:24:13;12.07;;;8.93;;
14599;SDS011;7386;45.586;12.854;2022-11-25T05:26:41;12.77;;;8.70;;
14599;SDS011;7386;45.586;12.854;2022-11-25T05:29:09;10.70;;;8.67;;
14599;SDS011;7386;45.586;12.854;2022-11-25T05:31:39;12.07;;;8.63;;
14599;SDS011;7386;45.586;12.854;2022-11-25T05:34:07;11.30;;;8.27;;
14599;SDS011;7386;45.586;12.854;2022-11-25T05:36:35;11.30;;;8.77;;
14599;SDS011;7386;45.586;12.854;2022-11-25T05:39:04;10.57;;;8.50;;
14599;SDS011;7386;45.586;12.854;2022-11-25T05:41:32;10.57;;;8.43;;
14599;SDS011;7386;45.586;12.854;2022-11-25T05:44:00;10.33;;;8.70;;
14599;SDS011;7386;45.586;12.854;2022-11-25T05:46:30;10.00;;;7.97;;
14599;SDS011;7386;45.586;12.854;2022-11-25T05:49:00;10.60;;;8.23;;
14599;SDS011;7386;45.586;12.854;2022-11-25T05:51:28;10.17;;;7.90;;
14599;SDS011;7386;45.586;12.854;2022-11-25T05:53:57;9.07;;;7.60;;
14599;SDS011;7386;45.586;12.854;2022-11-25T05:56:25;10.47;;;7.53;;
14599;SDS011;7386;45.586;12.854;2022-11-25T05:58:53;10.07;;;7.53;;
14599;SDS011;7386;45.586;12.854;2022-11-25T06:01:22;9.93;;;7.90;;
14599;SDS011;7386;45.586;12.854;2022-11-25T06:03:50;9.77;;;7.83;;
14599;SDS011;7386;45.586;12.854;2022-11-25T06:06:20;10.23;;;7.57;;
14599;SDS011;7386;45.586;12.854;2022-11-25T06:08:48;9.53;;;7.57;;
14599;SDS011;7386;45.586;12.854;2022-11-25T06:11:17;8.87;;;6.90;;
14599;SDS011;7386;45.586;12.854;2022-11-25T06:13:45;9.17;;;7.30;;
14599;SDS011;7386;45.586;12.854;2022-11-25T06:16:15;8.83;;;7.27;;
14599;SDS011;7386;45.586;12.854;2022-11-25T06:18:45;10.53;;;7.03;;
14599;SDS011;7386;45.586;12.854;2022-11-25T06:21:13;10.30;;;6.73;;
14599;SDS011;7386;45.586;12.854;2022-11-25T06:23:44;11.37;;;7.47;;
14599;SDS011;7386;45.586;12.854;2022-11-25T06:26:12;9.00;;;6.80;;
14599;SDS011;7386;45.586;12.854;2022-11-25T06:28:43;8.47;;;6.87;;
14599;SDS011;7386;45.586;12.854;2022-11-25T06:31:12;10.50;;;7.00;;
14599;SDS011;7386;45.586;12.854;2022-11-25T06:33:41;8.17;;;6.63;;
14599;SDS011;7386;45.586;12.854;2022-11-25T06:36:12;10.70;;;6.30;;
14599;SDS011;7386;45.586;12.854;2022-11-25T06:38:44;6.97;;;5.77;;
14599;SDS011;7386;45.586;12.854;2022-11-25T06:41:13;8.37;;;5.87;;
14599;SDS011;7386;45.586;12.854;2022-11-25T06:43:42;9.43;;;5.97;;
14599;SDS011;7386;45.586;12.854;2022-11-25T06:46:11;7.10;;;5.43;;
14599;SDS011;7386;45.586;12.854;2022-11-25T06:48:48;6.50;;;5.23;;
14599;SDS011;7386;45.586;12.854;2022-11-25T06:51:16;8.67;;;6.03;;
14599;SDS011;7386;45.586;12.854;2022-11-25T06:53:46;7.03;;;5.33;;
14599;SDS011;7386;45.586;12.854;2022-11-25T06:56:15;9.90;;;5.50;;
14599;SDS011;7386;45.586;12.854;2022-11-25T06:58:45;7.77;;;5.80;;
14599;SDS011;7386;45.586;12.854;2022-11-25T07:01:15;7.17;;;5.60;;
14599;SDS011;7386;45.586;12.854;2022-11-25T07:03:45;8.37;;;5.43;;
14599;SDS011;7386;45.586;12.854;2022-11-25T07:06:15;6.10;;;5.40;;
14599;SDS011;7386;45.586;12.854;2022-11-25T07:08:45;7.37;;;5.47;;
14599;SDS011;7386;45.586;12.854;2022-11-25T07:11:15;7.70;;;5.90;;
14599;SDS011;7386;45.586;12.854;2022-11-25T07:13:45;8.90;;;6.13;;
14599;SDS011;7386;45.586;12.854;2022-11-25T07:16:14;7.13;;;5.70;;
14599;SDS011;7386;45.586;12.854;2022-11-25T07:18:42;7.13;;;5.33;;
14599;SDS011;7386;45.586;12.854;2022-11-25T07:21:11;7.13;;;5.57;;
14599;SDS011;7386;45.586;12.854;2022-11-25T07:23:41;7.73;;;5.33;;
14599;SDS011;7386;45.586;12.854;2022-11-25T07:26:12;5.87;;;5.27;;
14599;SDS011;7386;45.586;12.854;2022-11-25T07:28:42;6.10;;;5.00;;
14599;SDS011;7386;45.586;12.854;2022-11-25T07:31:12;7.20;;;5.03;;
14599;SDS011;7386;45.586;12.854;2022-11-25T07:33:58;6.60;;;5.10;;
14599;SDS011;7386;45.586;12.854;2022-11-25T07:36:28;6.90;;;5.37;;
14599;SDS011;7386;45.586;12.854;2022-11-25T07:38:57;7.20;;;5.20;;
14599;SDS011;7386;45.586;12.854;2022-11-25T07:41:28;6.53;;;5.73;;
14599;SDS011;7386;45.586;12.854;2022-11-25T07:43:57;6.70;;;5.60;;
14599;SDS011;7386;45.586;12.854;2022-11-25T07:46:27;6.23;;;5.27;;
14599;SDS011;7386;45.586;12.854;2022-11-25T07:48:58;6.83;;;5.40;;
14599;SDS011;7386;45.586;12.854;2022-11-25T07:51:28;7.93;;;5.53;;
14599;SDS011;7386;45.586;12.854;2022-11-25T07:53:59;8.50;;;6.10;;
14599;SDS011;7386;45.586;12.854;2022-11-25T07:56:29;9.87;;;6.20;;
14599;SDS011;7386;45.586;12.854;2022-11-25T07:58:58;7.47;;;5.90;;
14599;SDS011;7386;45.586;12.854;2022-11-25T08:01:26;9.30;;;6.07;;
14599;SDS011;7386;45.586;12.854;2022-11-25T08:03:54;8.13;;;6.47;;
14599;SDS011;7386;45.586;12.854;2022-11-25T08:06:23;8.70;;;6.37;;
14599;SDS011;7386;45.586;12.854;2022-11-25T08:08:52;8.67;;;6.30;;
14599;SDS011;7386;45.586;12.854;2022-11-25T08:11:22;8.33;;;6.33;;
14599;SDS011;7386;45.586;12.854;2022-11-25T08:13:53;7.73;;;6.13;;
14599;SDS011;7386;45.586;12.854;2022-11-25T08:16:22;7.60;;;5.93;;
14599;SDS011;7386;45.586;12.854;2022-11-25T08:18:53;7.10;;;5.90;;
14599;SDS011;7386;45.586;12.854;2022-11-25T08:21:22;11.60;;;6.43;;
14599;SDS011;7386;45.586;12.854;2022-11-25T08:23:50;10.67;;;6.97;;
14599;SDS011;7386;45.586;12.854;2022-11-25T08:26:20;8.63;;;7.00;;
14599;SDS011;7386;45.586;12.854;2022-11-25T08:28:51;8.23;;;7.10;;
14599;SDS011;7386;45.586;12.854;2022-11-25T08:31:21;8.83;;;7.17;;
14599;SDS011;7386;45.586;12.854;2022-11-25T08:33:51;10.93;;;7.37;;
14599;SDS011;7386;45.586;12.854;2022-11-25T08:36:20;10.63;;;7.20;;
14599;SDS011;7386;45.586;12.854;2022-11-25T08:38:50;7.47;;;6.57;;
14599;SDS011;7386;45.586;12.854;2022-11-25T08:41:20;9.83;;;7.00;;
14599;SDS011;7386;45.586;12.854;2022-11-25T08:43:50;14.27;;;7.90;;
14599;SDS011;7386;45.586;12.854;2022-11-25T08:46:21;9.93;;;7.63;;
14599;SDS011;7386;45.586;12.854;2022-11-25T08:48:51;10.17;;;7.60;;
14599;SDS011;7386;45.586;12.854;2022-11-25T08:51:20;10.13;;;7.93;;
14599;SDS011;7386;45.586;12.854;2022-11-25T08:53:49;8.77;;;7.40;;
14599;SDS011;7386;45.586;12.854;2022-11-25T08:56:18;11.07;;;8.17;;
14599;SDS011;7386;45.586;12.854;2022-11-25T08:58:53;10.07;;;6.70;;
14599;SDS011;7386;45.586;12.854;2022-11-25T09:01:22;10.10;;;7.80;;
14599;SDS011;7386;45.586;12.854;2022-11-25T09:03:51;10.07;;;8.07;;
14599;SDS011;7386;45.586;12.854;2022-11-25T09:06:21;9.87;;;7.93;;
14599;SDS011;7386;45.586;12.854;2022-11-25T09:08:49;9.60;;;8.10;;
14599;SDS011;7386;45.586;12.854;2022-11-25T09:11:20;11.80;;;8.50;;
14599;SDS011;7386;45.586;12.854;2022-11-25T09:13:49;9.77;;;8.00;;
14599;SDS011;7386;45.586;12.854;2022-11-25T09:16:19;9.37;;;7.70;;
14599;SDS011;7386;45.586;12.854;2022-11-25T09:18:47;10.70;;;8.70;;
14599;SDS011;7386;45.586;12.854;2022-11-25T09:21:21;10.83;;;8.67;;
14599;SDS011;7386;45.586;12.854;2022-11-25T09:23:53;14.17;;;8.90;;
14599;SDS011;7386;45.586;12.854;2022-11-25T09:26:22;9.90;;;8.90;;
14599;SDS011;7386;45.586;12.854;2022-11-25T09:28:52;9.97;;;8.20;;
14599;SDS011;7386;45.586;12.854;2022-11-25T09:31:22;9.87;;;7.80;;
14599;SDS011;7386;45.586;12.854;2022-11-25T09:33:51;10.53;;;7.97;;
14599;SDS011;7386;45.586;12.854;2022-11-25T09:36:19;11.80;;;8.20;;
14599;SDS011;7386;45.586;12.854;2022-11-25T09:38:49;12.87;;;8.67;;
14599;SDS011;7386;45.586;12.854;2022-11-25T09:41:20;9.77;;;7.40;;
14599;SDS011;7386;45.586;12.854;2022-11-25T09:44:17;10.07;;;8.23;;
14599;SDS011;7386;45.586;12.854;2022-11-25T09:47:14;8.83;;;7.93;;
14599;SDS011;7386;45.586;12.854;2022-11-25T09:49:54;11.90;;;8.40;;
14599;SDS011;7386;45.586;12.854;2022-11-25T09:52:34;12.63;;;8.30;;
14599;SDS011;7386;45.586;12.854;2022-11-25T09:55:05;11.00;;;7.80;;
14599;SDS011;7386;45.586;12.854;2022-11-25T09:57:42;12.47;;;8.50;;
14599;SDS011;7386;45.586;12.854;2022-11-25T10:00:36;9.90;;;8.17;;
14599;SDS011;7386;45.586;12.854;2022-11-25T10:03:11;10.30;;;8.50;;
14599;SDS011;7386;45.586;12.854;2022-11-25T10:05:46;10.17;;;7.50;;
14599;SDS011;7386;45.586;12.854;2022-11-25T10:08:21;9.70;;;8.00;;
14599;SDS011;7386;45.586;12.854;2022-11-25T10:10:55;9.40;;;8.27;;
14599;SDS011;7386;45.586;12.854;2022-11-25T10:13:28;14.87;;;9.07;;
14599;SDS011;7386;45.586;12.854;2022-11-25T10:16:04;11.90;;;8.07;;
14599;SDS011;7386;45.586;12.854;2022-11-25T10:18:43;11.83;;;7.57;;
14599;SDS011;7386;45.586;12.854;2022-11-25T10:21:16;9.67;;;7.70;;
14599;SDS011;7386;45.586;12.854;2022-11-25T10:23:44;9.43;;;8.13;;
14599;SDS011;7386;45.586;12.854;2022-11-25T10:26:13;8.90;;;7.10;;
14599;SDS011;7386;45.586;12.854;2022-11-25T10:28:45;10.50;;;8.13;;
14599;SDS011;7386;45.586;12.854;2022-11-25T10:31:19;11.00;;;8.77;;
14599;SDS011;7386;45.586;12.854;2022-11-25T10:33:53;10.53;;;7.93;;
14599;SDS011;7386;45.586;12.854;2022-11-25T10:36:25;13.33;;;7.57;;
14599;SDS011;7386;45.586;12.854;2022-11-25T10:38:58;9.40;;;7.73;;
14599;SDS011;7386;45.586;12.854;2022-11-25T10:41:30;8.97;;;8.07;;
14599;SDS011;7386;45.586;12.854;2022-11-25T10:44:01;9.67;;;7.97;;
14599;SDS011;7386;45.586;12.854;2022-11-25T10:46:31;8.70;;;6.87;;
14599;SDS011;7386;45.586;12.854;2022-11-25T10:49:29;11.57;;;8.43;;
14599;SDS011;7386;45.586;12.854;2022-11-25T10:52:06;10.43;;;8.53;;
14599;SDS011;7386;45.586;12.854;2022-11-25T10:54:37;9.00;;;7.63;;
14599;SDS011;7386;45.586;12.854;2022-11-25T10:57:15;10.43;;;7.90;;
14599;SDS011;7386;45.586;12.854;2022-11-25T10:59:53;10.83;;;8.17;;
14599;SDS011;7386;45.586;12.854;2022-11-25T11:02:23;10.50;;;8.50;;
14599;SDS011;7386;45.586;12.854;2022-11-25T11:04:58;10.27;;;7.40;;
14599;SDS011;7386;45.586;12.854;2022-11-25T11:07:29;9.73;;;7.87;;
14599;SDS011;7386;45.586;12.854;2022-11-25T11:10:10;11.17;;;8.30;;
14599;SDS011;7386;45.586;12.854;2022-11-25T11:12:49;11.93;;;9.13;;
14599;SDS011;7386;45.586;12.854;2022-11-25T11:15:22;9.77;;;8.03;;
14599;SDS011;7386;45.586;12.854;2022-11-25T11:17:52;12.73;;;8.43;;
14599;SDS011;7386;45.586;12.854;2022-11-25T11:20:23;9.87;;;8.47;;
14599;SDS011;7386;45.586;12.854;2022-11-25T11:22:54;10.20;;;7.93;;
14599;SDS011;7386;45.586;12.854;2022-11-25T11:25:31;9.60;;;7.87;;
14599;SDS011;7386;45.586;12.854;2022-11-25T11:28:00;12.97;;;8.80;;
14599;SDS011;7386;45.586;12.854;2022-11-25T11:30:30;10.77;;;8.23;;
14599;SDS011;7386;45.586;12.854;2022-11-25T11:33:01;9.40;;;7.53;;
14599;SDS011;7386;45.586;12.854;2022-11-25T11:35:40;9.40;;;8.07;;
14599;SDS011;7386;45.586;12.854;2022-11-25T11:38:22;11.50;;;8.60;;
14599;SDS011;7386;45.586;12.854;2022-11-25T11:40:58;12.80;;;8.13;;
14599;SDS011;7386;45.586;12.854;2022-11-25T11:43:38;12.43;;;8.97;;
14599;SDS011;7386;45.586;12.854;2022-11-25T11:46:22;11.73;;;9.47;;
14599;SDS011;7386;45.586;12.854;2022-11-25T11:49:04;13.17;;;9.30;;
14599;SDS011;7386;45.586;12.854;2022-11-25T11:51:57;10.23;;;7.27;;
14599;SDS011;7386;45.586;12.854;2022-11-25T11:54:31;10.67;;;9.03;;
14599;SDS011;7386;45.586;12.854;2022-11-25T11:57:03;13.23;;;9.63;;
14599;SDS011;7386;45.586;12.854;2022-11-25T11:59:38;10.90;;;8.27;;
14599;SDS011;7386;45.586;12.854;2022-11-25T12:02:16;11.50;;;9.20;;
14599;SDS011;7386;45.586;12.854;2022-11-25T12:05:11;12.57;;;9.40;;
14599;SDS011;7386;45.586;12.854;2022-11-25T12:07:45;11.77;;;9.70;;
14599;SDS011;7386;45.586;12.854;2022-11-25T12:10:22;10.73;;;8.33;;
14599;SDS011;7386;45.586;12.854;2022-11-25T12:12:55;12.43;;;9.40;;
14599;SDS011;7386;45.586;12.854;2022-11-25T12:15:36;14.73;;;9.70;;
14599;SDS011;7386;45.586;12.854;2022-11-25T12:18:14;14.07;;;10.30;;
14599;SDS011;7386;45.586;12.854;2022-11-25T12:20:50;11.67;;;8.80;;
14599;SDS011;7386;45.586;12.854;2022-11-25T12:23:27;14.37;;;9.77;;
14599;SDS011;7386;45.586;12.854;2022-11-25T12:26:06;14.07;;;9.80;;
14599;SDS011;7386;45.586;12.854;2022-11-25T12:28:39;13.37;;;9.97;;
14599;SDS011;7386;45.586;12.854;2022-11-25T12:31:15;9.73;;;8.17;;
14599;SDS011;7386;45.586;12.854;2022-11-25T12:33:52;12.93;;;10.70;;
14599;SDS011;7386;45.586;12.854;2022-11-25T12:36:30;13.60;;;10.77;;
14599;SDS011;7386;45.586;12.854;2022-11-25T12:39:03;12.20;;;9.40;;
14599;SDS011;7386;45.586;12.854;2022-11-25T12:41:39;11.83;;;9.70;;
14599;SDS011;7386;45.586;12.854;2022-11-25T12:44:12;16.70;;;10.23;;
14599;SDS011;7386;45.586;12.854;2022-11-25T12:46:43;12.37;;;8.80;;
14599;SDS011;7386;45.586;12.854;2022-11-25T12:49:14;13.17;;;9.27;;
14599;SDS011;7386;45.586;12.854;2022-11-25T12:51:56;13.33;;;9.50;;
14599;SDS011;7386;45.586;12.854;2022-11-25T12:54:52;9.97;;;8.20;;
14599;SDS011;7386;45.586;12.854;2022-11-25T12:57:36;12.33;;;9.10;;
14599;SDS011;7386;45.586;12.854;2022-11-25T13:00:27;13.80;;;9.97;;
14599;SDS011;7386;45.586;12.854;2022-11-25T13:03:15;10.97;;;9.10;;
14599;SDS011;7386;45.586;12.854;2022-11-25T13:06:26;11.73;;;10.20;;
14599;SDS011;7386;45.586;12.854;2022-11-25T13:09:07;11.93;;;9.03;;
14599;SDS011;7386;45.586;12.854;2022-11-25T13:11:54;12.60;;;9.40;;
14599;SDS011;7386;45.586;12.854;2022-11-25T13:14:38;15.47;;;9.60;;
14599;SDS011;7386;45.586;12.854;2022-11-25T13:17:33;14.33;;;10.37;;
14599;SDS011;7386;45.586;12.854;2022-11-25T13:20:22;9.77;;;8.77;;
14599;SDS011;7386;45.586;12.854;2022-11-25T13:23:05;9.27;;;7.60;;
14599;SDS011;7386;45.586;12.854;2022-11-25T13:25:49;13.73;;;9.83;;
14599;SDS011;7386;45.586;12.854;2022-11-25T13:28:29;11.33;;;8.80;;
14599;SDS011;7386;45.586;12.854;2022-11-25T13:33:58;9.90;;;7.30;;
14599;SDS011;7386;45.586;12.854;2022-11-25T13:36:43;9.30;;;7.63;;
14599;SDS011;7386;45.586;12.854;2022-11-25T13:39:13;14.40;;;9.07;;
14599;SDS011;7386;45.586;12.854;2022-11-25T13:41:45;14.70;;;10.23;;
14599;SDS011;7386;45.586;12.854;2022-11-25T13:44:19;11.17;;;8.37;;
14599;SDS011;7386;45.586;12.854;2022-11-25T13:46:55;8.83;;;6.73;;
14599;SDS011;7386;45.586;12.854;2022-11-25T13:49:29;14.27;;;10.83;;
14599;SDS011;7386;45.586;12.854;2022-11-25T13:52:02;12.53;;;9.37;;
14599;SDS011;7386;45.586;12.854;2022-11-25T13:54:52;13.53;;;10.87;;
14599;SDS011;7386;45.586;12.854;2022-11-25T13:57:25;19.23;;;12.17;;
14599;SDS011;7386;45.586;12.854;2022-11-25T13:59:58;12.43;;;9.73;;
14599;SDS011;7386;45.586;12.854;2022-11-25T14:02:35;13.77;;;10.77;;
14599;SDS011;7386;45.586;12.854;2022-11-25T14:08:19;14.10;;;10.63;;
14599;SDS011;7386;45.586;12.854;2022-11-25T14:10:57;15.27;;;12.20;;
14599;SDS011;7386;45.586;12.854;2022-11-25T14:13:53;12.53;;;9.50;;
14599;SDS011;7386;45.586;12.854;2022-11-25T14:16:40;15.37;;;11.80;;
14599;SDS011;7386;45.586;12.854;2022-11-25T14:19:33;15.57;;;12.37;;
14599;SDS011;7386;45.586;12.854;2022-11-25T14:22:27;12.87;;;10.27;;
14599;SDS011;7386;45.586;12.854;2022-11-25T14:25:12;18.63;;;12.03;;
14599;SDS011;7386;45.586;12.854;2022-11-25T14:27:43;13.17;;;11.53;;
14599;SDS011;7386;45.586;12.854;2022-11-25T14:30:15;11.60;;;8.50;;
14599;SDS011;7386;45.586;12.854;2022-11-25T14:32:46;14.47;;;11.87;;
14599;SDS011;7386;45.586;12.854;2022-11-25T14:35:23;15.30;;;10.50;;
14599;SDS011;7386;45.586;12.854;2022-11-25T14:37:55;16.70;;;11.37;;
14599;SDS011;7386;45.586;12.854;2022-11-25T14:40:27;15.00;;;12.57;;
14599;SDS011;7386;45.586;12.854;2022-11-25T14:43:01;14.97;;;11.93;;
14599;SDS011;7386;45.586;12.854;2022-11-25T14:45:32;15.43;;;12.80;;
14599;SDS011;7386;45.586;12.854;2022-11-25T14:48:13;16.70;;;12.13;;
14599;SDS011;7386;45.586;12.854;2022-11-25T14:50:52;12.67;;;10.97;;
14599;SDS011;7386;45.586;12.854;2022-11-25T14:53:21;13.77;;;12.10;;
14599;SDS011;7386;45.586;12.854;2022-11-25T14:55:51;12.33;;;11.03;;
14599;SDS011;7386;45.586;12.854;2022-11-25T14:58:20;15.87;;;11.53;;
14599;SDS011;7386;45.586;12.854;2022-11-25T15:00:49;16.47;;;12.80;;
14599;SDS011;7386;45.586;12.854;2022-11-25T15:03:20;13.67;;;10.30;;
14599;SDS011;7386;45.586;12.854;2022-11-25T15:05:53;16.20;;;12.70;;
14599;SDS011;7386;45.586;12.854;2022-11-25T15:08:23;12.23;;;9.80;;
14599;SDS011;7386;45.586;12.854;2022-11-25T15:10:53;13.23;;;10.70;;